Welcome to our Virtual Airline
Sign-in:

Flight MFC6291

  • Submitted By: Brad Allen
  • Departure Airport: Hydaburg SPB (HYG)
  • Arrival Airport: Point Baker SPB (KPB)
  • Aircraft: C185F (N015MM)
  • Flight Time: 00.38.26
  • Date Submitted: 2018/04/02
  • Route: FOLLOW THE TOUR FP
  • Status: Accepted
Flight Details
Gross Revenue:
(3 load / $ 52.00 per unit
$ 156.00
Fuel Cost:
(28.5763 fuel used @ 5.1 / unit)
$ 145.74

Additional Log Information:

View Log

[16:38] ----- Flight Opened -----
[16:38] Cigar Box - 1.1.2.0
[16:38] FS: Prepar3D
[16:38] FSUIPC: v4.973
[16:38] Flight Number: MFC6291
[16:38] FS Aircraft: C185F SKYWAGON AMPHIBIAN N2449F
[16:38] FS Model: C185
[16:38] FS Type: Cessna
[16:38] Departure: HYG
[16:38] Arrival: KPB
[16:38] Flight Level: 2500
[16:38] Flight Type: H
[16:38] Passengers: 3
[16:38] FOB: 250 lbs
[16:38] Gate: n/a
[16:38] NOTE: Parking Brake Ignored
[16:38] Crash Detection: Disabled
[16:38] Engines: 1 Piston
[16:38] NOTE: Boarding has started
[16:38] Parking Brake: Engaged
[16:38] Landing Gear: Retracted
[16:38] Main Door Closed
[16:38] COM1: 122.90
[16:38] COM2: 127.80
[16:38] Transponder: 1200
[16:38] NAV1: 113.70
[16:38] NAV2: 110.60
[16:38] ADF1: 284.0
[16:38] ADF2: 240.0
[16:38] Navigation Mode: GPS
[16:38] Navigation Mode: GPS
[16:38] Engine 1: Started
[16:39] Parking Brake: Released
[16:39] Light Data: Navigation ON
[16:39] Light Data: Beacon ON
[16:39] Light Data: Landing lights ON
[16:39] Light Data: Taxi lights ON
[16:39] Light Data: Strobe lights ON
[16:39] Light Data: Instrument lights ON
[16:39] Light Data: Recognition lights ON
[16:39] Light Data: Wing lights ON
[16:39] Light Data: Logo lights ON
[16:39] Light Data: Cabin lights ON
[16:39] NOTE: Pushing back
[16:39] Navigation Mode: NAV
[16:39] NOTE: Taxi started
[16:39] Navigation Mode: GPS
[16:40] Flaps: Position 1
[16:40] Flaps: Position 2
[16:40] NOTE: ----- TAKE OFF -----
[16:40] GS: 56 knots
[16:40] TAS: 57 knots
[16:40] IAS: 58 knots
[16:40] VS: 57 fpm
[16:40] FOB: 249 lbs
[16:40] Heading: 311°
[16:40] Pitch: 6°
[16:40] Bank: 1°
[16:40] Aircraft Weight: 2354.79 lbs
[16:40] Nearest Airport: HYG
[16:40] Distance: 0.65 miles
[16:40] Runway: ???
[16:40] Ground Surface: Water
[16:40] Ground Condition: Normal
[16:40] NOTE: Weather Report
[16:40] Wind Heading: 0°
[16:40] Wind Speed: 1 knots
[16:40] OAT: 4° C
[16:40] TAT: 5° C
[16:40] Precipitation: None
[16:40] Dew Point: -3° C
[16:40] Visibility: 5 miles
[16:40] METAR: No METAR available for HYG.
[16:40] NOTE: Climb started
[16:41] Flaps: Position 1
[16:41] GS: 62 knots
[16:41] TAS: 64 knots
[16:41] IAS: 66 knots
[16:41] VS: 627 fpm
[16:41] Flaps: Position 0
[16:41] GS: 68 knots
[16:41] TAS: 70 knots
[16:41] IAS: 71 knots
[16:41] VS: 705 fpm
[16:41] View Mode: Virtual Cockpit
[16:41] Light Data: Landing lights OFF
[16:41] AGL: 574 ft
[16:41] AMSL: 574 ft
[16:41] Light Data: Taxi lights OFF
[16:41] COM1: 118.50
[16:42] Transponder: 5125
[16:43] Autopilot: Engaged
[16:43] AGL: 1959 ft
[16:43] AMSL: 2293 ft
[16:43] NOTE: TOC reached
[16:43] NOTE: Cruise started
[16:43] GS: 124 knots
[16:43] TAS: 127 knots
[16:43] IAS: 125 knots
[16:43] VS: 196 fpm
[16:43] FOB: 243 lbs
[16:43] Heading: 342°
[16:43] Pitch: 0°
[16:43] Bank: 0°
[16:43] Aircraft Weight: 2348.70 lbs
[16:49] Light Data: Landing lights ON
[16:49] AGL: 3970 ft
[16:49] AMSL: 4196 ft
[16:49] Light Data: Landing lights OFF
[16:49] AGL: 4075 ft
[16:49] AMSL: 4202 ft
[16:49] Light Data: Taxi lights ON
[16:50] Light Data: Taxi lights OFF
[16:56] Light Data: Beacon OFF
[16:56] Light Data: Navigation OFF
[16:56] Light Data: Strobe lights OFF
[16:56] Light Data: Instrument lights OFF
[16:56] Light Data: Recognition lights OFF
[16:56] Light Data: Wing lights OFF
[16:56] Light Data: Logo lights OFF
[16:56] Light Data: Cabin lights OFF
[16:56] Light Data: Navigation ON
[16:56] Recovery: Flight Saved
[17:07] Autopilot: Disengaged
[17:07] AGL: 4531 ft
[17:07] AMSL: 5915 ft
[17:08] COM1: 122.90
[17:09] Light Data: Beacon ON
[17:09] Light Data: Landing lights ON
[17:09] AGL: 3711 ft
[17:09] AMSL: 4219 ft
[17:09] Light Data: Taxi lights ON
[17:09] Light Data: Strobe lights ON
[17:09] Light Data: Instrument lights ON
[17:09] Light Data: Recognition lights ON
[17:09] Light Data: Wing lights ON
[17:09] Light Data: Logo lights ON
[17:09] Light Data: Cabin lights ON
[17:11] NOTE: TOD reached
[17:11] NOTE: Descent started
[17:11] GS: 122 knots
[17:11] TAS: 118 knots
[17:11] IAS: 117 knots
[17:11] VS: -565 fpm
[17:11] FOB: 190 lbs
[17:11] Heading: 339°
[17:11] Pitch: 2°
[17:11] Bank: 0°
[17:11] Aircraft Weight: 2295.72 lbs
[17:11] NOTE: On approach
[17:12] Recovery: Flight Saved
[17:15] Flaps: Position 1
[17:15] GS: 69 knots
[17:15] TAS: 70 knots
[17:15] IAS: 71 knots
[17:15] VS: -538 fpm
[17:15] Flaps: Position 2
[17:15] GS: 69 knots
[17:15] TAS: 69 knots
[17:15] IAS: 70 knots
[17:15] VS: -388 fpm
[17:15] Flaps: Position 3
[17:15] GS: 60 knots
[17:15] TAS: 61 knots
[17:15] IAS: 62 knots
[17:15] VS: 271 fpm
[17:15] Flaps: Position 4
[17:15] GS: 56 knots
[17:15] TAS: 57 knots
[17:15] IAS: 57 knots
[17:15] VS: 470 fpm
[17:16] NOTE: ----- LANDED -----
[17:16] Landing Rate: -75.36 fpm
[17:16] GS: 40 knots
[17:16] TAS: 44 knots
[17:16] IAS: 44 knots
[17:16] VS: -73 fpm
[17:16] FOB: 187 lbs
[17:16] Heading: 153°
[17:16] Pitch: 6°
[17:16] Bank: 0°
[17:16] Aircraft Weight: 2292.40 lbs
[17:16] Nearest Airport: KPB
[17:16] Distance: 0.35 miles
[17:16] Runway: ???
[17:16] Ground Surface: Water
[17:16] Ground Condition: Normal
[17:16] NOTE: Weather Report
[17:16] Wind Heading: 101°
[17:16] Wind Speed: 5 knots
[17:16] OAT: 4° C
[17:16] TAT: 4° C
[17:16] Precipitation: None
[17:16] Dew Point: -6° C
[17:16] Visibility: 19 miles
[17:16] METAR: KPBF 022053Z AUTO 09006KT 10SM CLR 17/12 A2989 RMK AO2 SLP120 T01670122 58035KPBG 022053Z AUTO 11006KT 10SM CLR 05/M11 A3004 RMK AO2 SLP175 T00501106 56012KPBH 022055Z AUTO 21006KT 2SM -SN SCT011 BKN023 OVC030 M03/M05 A2992 RMK AO2 T10261047KPBI 022053Z 11012KT 10SM SCT030 SCT250 27/19 A3001 RMK AO2 SLP161 T02670189 56014KPBX 022055Z AUTO 00000KT 10SM OVC006 06/06 A3002 RMK AO2 T00630063
[17:16] View Mode: Virtual Cockpit
[17:17] NOTE: Taxi started
[17:17] Flaps: Position 3
[17:17] Flaps: Position 2
[17:17] Flaps: Position 1
[17:17] Flaps: Position 0
[17:17] Engine 1: Stopped
[17:17] NOTE: Arrived
[17:17] Parking Brake: Engaged
[17:17] Light Data: Navigation OFF
[17:17] Light Data: Beacon OFF
[17:17] Light Data: Landing lights OFF
[17:17] Light Data: Taxi lights OFF
[17:17] Light Data: Strobe lights OFF
[17:17] Light Data: Instrument lights OFF
[17:17] Light Data: Recognition lights OFF
[17:17] Light Data: Wing lights OFF
[17:17] Light Data: Logo lights OFF
[17:17] Light Data: Cabin lights OFF
[17:18] Parking Brake: Released
[17:18] Parking Brake: Engaged
[17:19] Gate: n/a
[17:19] NOTE: Flight Completed
[17:19] FS Aircraft: C185F SKYWAGON AMPHIBIAN N2449F
[17:19] FS Model: C185
[17:19] FS Type: Cessna
[17:19] FOB: 187 lbs
[17:19] Fuel Used: 63 lbs
[17:19] Flight Time: 00:38:26
[17:19] Flight Time (Dawn): 00:00:00
[17:19] Flight Time (Day): 00:38:26
[17:19] Flight Time (Dusk): 00:00:00
[17:19] Flight Time (Night): 00:00:00
[17:19] Total Landings: 1
[17:19] MaxSim Rate: 0x
[17:19] Cigar Box - 1.1.2.0
[17:19] ----- Flight Closed -----

Route Map